createdAt,value
2023-05-12T00:00:07.817Z,58.21
2023-05-12T00:01:07.851Z,58.36
2023-05-12T00:02:07.965Z,58.27
2023-05-12T00:03:08.149Z,58.22
2023-05-12T00:04:08.327Z,58.15
2023-05-12T00:05:08.227Z,58.22
2023-05-12T00:06:08.297Z,58.44
2023-05-12T00:07:08.367Z,58.73
2023-05-12T00:08:08.423Z,58.42
2023-05-12T00:09:08.523Z,58.46
2023-05-12T00:10:08.619Z,58.53
2023-05-12T00:11:08.702Z,58.46
2023-05-12T00:12:08.798Z,58.25
2023-05-12T00:13:08.857Z,58.42
2023-05-12T00:14:08.955Z,58.61
2023-05-12T00:15:09.021Z,58.69
2023-05-12T00:16:09.152Z,58.63
2023-05-12T00:17:09.174Z,58.38
2023-05-12T00:18:09.234Z,58.95
2023-05-12T00:19:09.517Z,58.72
2023-05-12T00:20:09.394Z,58.89
2023-05-12T00:21:09.446Z,58.75
2023-05-12T00:22:09.545Z,58.88
2023-05-12T00:23:09.637Z,59.07
2023-05-12T00:24:09.733Z,58.71
2023-05-12T00:25:09.832Z,58.88
2023-05-12T00:26:09.927Z,59.13
2023-05-12T00:27:09.957Z,59.14
2023-05-12T00:28:10.179Z,59.65
2023-05-12T00:29:10.151Z,59.44
2023-05-12T00:30:10.251Z,59.78
2023-05-12T00:31:10.362Z,59.60
2023-05-12T00:32:10.395Z,60.37
2023-05-12T00:33:10.484Z,59.38
2023-05-12T00:34:10.556Z,59.43
2023-05-12T00:35:10.655Z,59.20
2023-05-12T00:36:10.730Z,59.26
2023-05-12T00:37:10.809Z,59.43
2023-05-12T00:38:10.879Z,59.89
2023-05-12T00:39:10.971Z,59.73
2023-05-12T00:40:11.074Z,59.55
2023-05-12T00:41:11.143Z,59.94
2023-05-12T00:42:11.224Z,59.73
2023-05-12T00:43:11.300Z,59.62
2023-05-12T00:44:11.396Z,59.91
2023-05-12T00:45:11.496Z,59.74
2023-05-12T00:46:11.669Z,59.71
2023-05-12T00:47:11.694Z,59.93
2023-05-12T00:48:11.858Z,60.26
2023-05-12T00:49:11.864Z,60.26
2023-05-12T00:50:11.926Z,60.41
2023-05-12T00:51:12.453Z,59.69
2023-05-12T00:52:12.115Z,60.25
2023-05-12T00:53:12.171Z,60.34
2023-05-12T00:54:12.270Z,61.03
2023-05-12T00:55:12.364Z,61.40
2023-05-12T00:56:12.531Z,61.67
2023-05-12T00:57:12.572Z,62.02
2023-05-12T00:58:12.614Z,61.95
2023-05-12T00:59:12.708Z,61.38
2023-05-12T01:00:12.803Z,61.61
2023-05-12T01:01:13.002Z,61.64
2023-05-12T01:02:13.034Z,61.93
2023-05-12T01:03:13.243Z,62.06
2023-05-12T01:04:13.129Z,61.95
2023-05-12T01:05:13.214Z,62.24
2023-05-12T01:06:13.322Z,62.78
2023-05-12T01:07:13.362Z,62.52
2023-05-12T01:08:13.461Z,62.42
2023-05-12T01:09:13.561Z,62.39
2023-05-12T01:10:13.625Z,62.26
2023-05-12T01:11:13.720Z,62.16
2023-05-12T01:12:13.797Z,62.08
2023-05-12T01:13:13.842Z,61.65
2023-05-12T01:14:13.952Z,62.16
2023-05-12T01:15:14.036Z,62.51
2023-05-12T01:16:14.127Z,62.18
2023-05-12T01:17:14.205Z,62.14
2023-05-12T01:18:14.269Z,62.45
2023-05-12T01:19:14.400Z,62.58
2023-05-12T01:20:14.427Z,62.83
2023-05-12T01:21:14.523Z,63.15
2023-05-12T01:22:14.631Z,62.90
2023-05-12T01:23:14.686Z,63.32
2023-05-12T01:24:14.778Z,63.59
2023-05-12T01:25:14.880Z,63.22
2023-05-12T01:26:14.931Z,62.95
2023-05-12T01:27:15.039Z,63.22
2023-05-12T01:28:15.098Z,63.92
2023-05-12T01:29:15.172Z,63.83
2023-05-12T01:30:15.300Z,63.91
2023-05-12T01:31:15.434Z,64.15
2023-05-12T01:32:15.432Z,64.24
2023-05-12T01:33:15.522Z,64.55
2023-05-12T01:34:15.627Z,64.56
2023-05-12T01:35:15.687Z,64.66
2023-05-12T01:36:15.882Z,64.30
2023-05-12T01:37:15.879Z,64.12
2023-05-12T01:38:15.930Z,63.69
2023-05-12T01:39:15.993Z,63.20
2023-05-12T01:40:16.096Z,63.15
2023-05-12T01:41:16.140Z,63.40
2023-05-12T01:42:16.231Z,64.05
2023-05-12T01:43:16.334Z,64.24
2023-05-12T01:44:16.412Z,64.18
2023-05-12T01:45:16.522Z,64.18
2023-05-12T01:46:16.648Z,64.22
2023-05-12T01:47:16.696Z,64.49
2023-05-12T01:48:16.789Z,64.52
2023-05-12T01:49:16.895Z,63.67
2023-05-12T01:50:16.993Z,64.34
2023-05-12T01:51:17.018Z,64.15
2023-05-12T01:52:17.103Z,64.15
2023-05-12T01:53:17.184Z,63.58
2023-05-12T01:54:17.251Z,63.28
2023-05-12T01:55:17.314Z,63.56
2023-05-12T01:56:17.367Z,63.44
2023-05-12T01:57:17.449Z,63.42
2023-05-12T01:58:17.561Z,63.38
2023-05-12T01:59:17.681Z,63.61
2023-05-12T02:00:18.007Z,64.37
2023-05-12T02:01:17.839Z,64.87
2023-05-12T02:02:17.881Z,64.57
2023-05-12T02:03:18.017Z,64.74
2023-05-12T02:04:18.052Z,64.62
2023-05-12T02:05:18.102Z,65.11
2023-05-12T02:06:18.200Z,64.82
2023-05-12T02:07:18.312Z,64.15
2023-05-12T02:08:18.370Z,63.88
2023-05-12T02:09:18.473Z,64.02
2023-05-12T02:10:18.841Z,63.93
2023-05-12T02:11:18.616Z,63.16
2023-05-12T02:12:18.722Z,63.21
2023-05-12T02:13:18.820Z,63.31
2023-05-12T02:14:18.876Z,63.54
2023-05-12T02:15:18.989Z,64.24
2023-05-12T02:16:19.182Z,64.20
2023-05-12T02:17:19.137Z,64.49
2023-05-12T02:18:19.201Z,64.66
2023-05-12T02:19:19.326Z,64.51
2023-05-12T02:20:19.661Z,65.01
2023-05-12T02:21:19.490Z,65.15
2023-05-12T02:22:19.545Z,65.30
2023-05-12T02:23:19.612Z,65.44
2023-05-12T02:24:19.683Z,65.57
2023-05-12T02:25:19.753Z,65.76
2023-05-12T02:26:19.804Z,65.86
2023-05-12T02:27:19.888Z,66.30
2023-05-12T02:28:19.964Z,65.71
2023-05-12T02:29:20.066Z,65.93
2023-05-12T02:30:20.350Z,65.39
2023-05-12T02:31:20.255Z,66.20
2023-05-12T02:32:20.348Z,65.82
2023-05-12T02:33:20.381Z,66.41
2023-05-12T02:34:20.462Z,65.80
2023-05-12T02:35:20.582Z,65.96
2023-05-12T02:36:20.660Z,66.30
2023-05-12T02:37:20.723Z,66.49
2023-05-12T02:38:20.799Z,66.36
2023-05-12T02:39:20.902Z,67.08
2023-05-12T02:40:21.203Z,66.14
2023-05-12T02:41:21.125Z,66.19
2023-05-12T02:42:21.171Z,66.33
2023-05-12T02:43:21.238Z,65.76
2023-05-12T02:44:21.317Z,65.90
2023-05-12T02:45:21.423Z,65.25
2023-05-12T02:46:21.568Z,65.75
2023-05-12T02:47:21.649Z,66.02
2023-05-12T02:48:21.632Z,66.26
2023-05-12T02:49:21.708Z,66.79
2023-05-12T02:50:21.989Z,65.96
2023-05-12T02:51:21.894Z,65.50
2023-05-12T02:52:21.953Z,65.55
2023-05-12T02:53:22.013Z,65.84
2023-05-12T02:54:22.108Z,66.54
2023-05-12T02:55:22.212Z,65.83
2023-05-12T02:56:22.306Z,67.20
2023-05-12T02:57:22.359Z,67.26
2023-05-12T02:58:22.464Z,66.67
2023-05-12T02:59:22.542Z,66.36
2023-05-12T03:00:22.618Z,65.86
2023-05-12T03:01:22.760Z,66.41
2023-05-12T03:02:22.844Z,66.11
2023-05-12T03:03:22.960Z,66.83
2023-05-12T03:04:22.975Z,66.13
2023-05-12T03:05:23.053Z,66.05
2023-05-12T03:06:23.152Z,65.80
2023-05-12T03:07:23.194Z,65.89
2023-05-12T03:08:23.282Z,66.00
2023-05-12T03:09:23.356Z,66.59
2023-05-12T03:10:23.578Z,66.71
2023-05-12T03:11:23.534Z,67.18
2023-05-12T03:12:23.618Z,68.31
2023-05-12T03:13:23.686Z,67.31
2023-05-12T03:14:23.769Z,66.94
2023-05-12T03:15:23.877Z,66.61
2023-05-12T03:16:23.975Z,66.38
2023-05-12T03:17:24.049Z,66.26
2023-05-12T03:18:24.159Z,66.41
2023-05-12T03:19:24.170Z,66.53
2023-05-12T03:20:24.236Z,66.56
2023-05-12T03:21:24.329Z,66.69
2023-05-12T03:22:24.429Z,66.66
2023-05-12T03:23:24.450Z,66.85
2023-05-12T03:24:24.559Z,68.06
2023-05-12T03:25:24.614Z,67.37
2023-05-12T03:26:24.682Z,67.22
2023-05-12T03:27:24.760Z,67.20
2023-05-12T03:28:24.852Z,67.23
2023-05-12T03:29:24.934Z,67.36
2023-05-12T03:30:24.971Z,67.26
2023-05-12T03:31:25.077Z,67.20
2023-05-12T03:32:25.178Z,67.30
2023-05-12T03:33:25.213Z,67.55
2023-05-12T03:34:25.305Z,67.41
2023-05-12T03:35:25.360Z,67.35
2023-05-12T03:36:25.459Z,67.47
2023-05-12T03:37:25.539Z,67.44
2023-05-12T03:38:25.633Z,67.55
2023-05-12T03:39:25.684Z,67.54
2023-05-12T03:40:25.758Z,67.55
2023-05-12T03:41:25.826Z,67.65
2023-05-12T03:42:25.932Z,67.58
2023-05-12T03:43:26.034Z,67.54
2023-05-12T03:44:26.113Z,67.28
2023-05-12T03:45:26.174Z,67.38
2023-05-12T03:46:26.307Z,67.30
2023-05-12T03:47:29.002Z,67.19
2023-05-12T03:48:26.441Z,67.15
2023-05-12T03:49:26.506Z,67.30
2023-05-12T03:50:26.585Z,67.49
2023-05-12T03:51:26.632Z,67.60
2023-05-12T03:52:26.734Z,67.85
2023-05-12T03:53:26.795Z,67.75
2023-05-12T03:54:26.880Z,67.70
2023-05-12T03:55:26.953Z,67.56
2023-05-12T03:56:27.068Z,67.78
2023-05-12T03:57:27.116Z,67.81
2023-05-12T03:58:27.205Z,67.79
2023-05-12T03:59:27.310Z,67.83
2023-05-12T04:00:27.351Z,67.94
2023-05-12T04:01:27.455Z,68.00
2023-05-12T04:02:27.694Z,67.90
2023-05-12T04:03:27.753Z,68.08
2023-05-12T04:04:27.722Z,68.24
2023-05-12T04:05:27.775Z,67.98
2023-05-12T04:06:27.872Z,68.11
2023-05-12T04:07:27.941Z,68.10
2023-05-12T04:08:28.025Z,68.12
2023-05-12T04:09:28.121Z,68.11
2023-05-12T04:10:28.228Z,68.12
2023-05-12T04:11:28.313Z,68.30
2023-05-12T04:12:28.410Z,67.88
2023-05-12T04:13:28.475Z,68.10
2023-05-12T04:14:39.141Z,67.99
2023-05-12T04:15:28.680Z,67.82
2023-05-12T04:16:28.782Z,67.86
2023-05-12T04:17:28.854Z,67.99
2023-05-12T04:18:29.928Z,67.83
2023-05-12T04:19:29.007Z,67.94
2023-05-12T04:20:29.121Z,68.06
2023-05-12T04:21:29.187Z,68.08
2023-05-12T04:22:29.266Z,68.13
2023-05-12T04:23:29.377Z,68.05
2023-05-12T04:24:29.421Z,68.20
2023-05-12T04:25:29.534Z,68.11
2023-05-12T04:26:29.553Z,67.81
2023-05-12T04:27:29.627Z,68.01
2023-05-12T04:28:29.679Z,67.50
2023-05-12T04:29:29.765Z,67.68
2023-05-12T04:30:29.846Z,67.42
2023-05-12T04:31:29.938Z,67.54
2023-05-12T04:32:30.017Z,67.56
2023-05-12T04:33:30.091Z,67.66
2023-05-12T04:34:30.144Z,67.59
2023-05-12T04:35:30.237Z,67.72
2023-05-12T04:36:30.339Z,67.47
2023-05-12T04:37:30.403Z,67.56
2023-05-12T04:38:30.472Z,67.60
2023-05-12T04:39:30.557Z,67.43
2023-05-12T04:40:32.659Z,67.57
2023-05-12T04:41:30.757Z,67.48
2023-05-12T04:42:30.807Z,67.53
2023-05-12T04:44:30.975Z,67.43
2023-05-12T04:45:31.070Z,67.31
2023-05-12T04:46:31.205Z,67.44
2023-05-12T04:47:31.238Z,67.31
2023-05-12T04:48:31.301Z,67.16
2023-05-12T04:49:31.364Z,67.17
2023-05-12T04:50:31.443Z,67.05
2023-05-12T04:51:31.576Z,66.99
2023-05-12T04:52:31.609Z,66.98
2023-05-12T04:53:31.668Z,66.94
2023-05-12T04:54:31.758Z,66.93
2023-05-12T04:55:31.857Z,66.75
2023-05-12T04:56:31.944Z,66.51
2023-05-12T04:57:32.035Z,66.74
2023-05-12T04:58:32.092Z,66.40
2023-05-12T04:59:32.175Z,66.31
2023-05-12T05:00:32.281Z,66.29
2023-05-12T05:01:32.364Z,66.44
2023-05-12T05:02:32.526Z,66.52
2023-05-12T05:03:32.598Z,66.49
2023-05-12T05:04:32.623Z,66.46
2023-05-12T05:05:32.714Z,66.02
2023-05-12T05:06:32.769Z,66.07
2023-05-12T05:07:32.858Z,65.80
2023-05-12T05:08:32.913Z,65.90
2023-05-12T05:09:34.509Z,65.80
2023-05-12T05:10:33.086Z,65.32
2023-05-12T05:11:33.169Z,65.20
2023-05-12T05:12:33.289Z,65.16
2023-05-12T05:13:33.333Z,64.72
2023-05-12T05:14:33.412Z,65.10
2023-05-12T05:15:33.561Z,64.67
2023-05-12T05:16:33.587Z,64.72
2023-05-12T05:17:33.730Z,64.85
2023-05-12T05:18:33.818Z,65.11
2023-05-12T05:19:46.187Z,65.05
2023-05-12T05:20:33.991Z,64.68
2023-05-12T05:21:34.060Z,64.75
2023-05-12T05:22:34.103Z,64.57
2023-05-12T05:23:34.200Z,64.23
2023-05-12T05:24:34.311Z,63.91
2023-05-12T05:25:34.378Z,64.24
2023-05-12T05:26:34.472Z,63.98
2023-05-12T05:27:34.611Z,63.62
2023-05-12T05:28:34.664Z,63.82
2023-05-12T05:29:40.705Z,64.04
2023-05-12T05:30:34.827Z,63.63
2023-05-12T05:31:34.914Z,63.13
2023-05-12T05:32:36.493Z,63.30
2023-05-12T05:33:35.078Z,63.48
2023-05-12T05:34:35.248Z,63.51
2023-05-12T05:35:35.242Z,63.41
2023-05-12T05:36:35.299Z,63.33
2023-05-12T05:37:35.389Z,63.21
2023-05-12T05:38:35.497Z,63.25
2023-05-12T05:39:35.598Z,62.50
2023-05-12T05:40:48.823Z,62.50
2023-05-12T05:41:35.721Z,62.52
2023-05-12T05:42:35.833Z,62.51
2023-05-12T05:43:35.896Z,62.65
2023-05-12T05:44:35.998Z,62.58
2023-05-12T05:45:36.093Z,62.49
2023-05-12T05:46:36.130Z,63.01
2023-05-12T05:47:36.227Z,62.28
2023-05-12T05:48:36.305Z,62.14
2023-05-12T05:49:36.360Z,62.40
2023-05-12T05:50:36.457Z,62.21
2023-05-12T05:51:36.592Z,61.96
2023-05-12T05:52:36.612Z,61.61
2023-05-12T05:53:36.700Z,61.82
2023-05-12T05:54:36.805Z,61.88
2023-05-12T05:55:36.862Z,61.79
2023-05-12T05:56:36.986Z,61.76
2023-05-12T05:57:37.060Z,61.79
2023-05-12T05:58:37.119Z,61.66
2023-05-12T05:59:37.225Z,61.51
2023-05-12T06:00:37.321Z,61.46
2023-05-12T06:01:37.365Z,61.80
2023-05-12T06:02:37.470Z,61.75
2023-05-12T06:03:37.580Z,61.97
2023-05-12T06:04:37.608Z,61.88
2023-05-12T06:05:37.697Z,61.50
2023-05-12T06:06:37.750Z,60.83
2023-05-12T06:07:37.812Z,60.30
2023-05-12T06:08:37.924Z,59.92
2023-05-12T06:09:37.999Z,59.76
2023-05-12T06:10:38.106Z,59.96
2023-05-12T06:11:38.196Z,59.42
2023-05-12T06:12:38.259Z,59.10
2023-05-12T06:13:38.335Z,59.17
2023-05-12T06:14:38.414Z,58.59
2023-05-12T06:15:38.504Z,58.13
2023-05-12T06:16:38.678Z,57.91
2023-05-12T06:17:38.732Z,59.00
2023-05-12T06:18:38.824Z,58.35
2023-05-12T06:19:38.857Z,58.00
2023-05-12T06:20:38.962Z,57.51
2023-05-12T06:21:39.016Z,57.33
2023-05-12T06:22:39.110Z,57.30
2023-05-12T06:23:39.202Z,56.98
2023-05-12T06:24:39.299Z,56.73
2023-05-12T06:25:39.364Z,56.76
2023-05-12T06:26:39.444Z,56.88
2023-05-12T06:27:39.536Z,56.53
2023-05-12T06:28:39.613Z,56.96
2023-05-12T06:29:39.710Z,56.73
2023-05-12T06:30:39.826Z,56.46
2023-05-12T06:31:39.911Z,56.47
2023-05-12T06:32:39.995Z,55.90
2023-05-12T06:33:40.039Z,56.11
2023-05-12T06:34:40.152Z,55.88
2023-05-12T06:35:40.217Z,55.72
2023-05-12T06:36:40.286Z,55.77
2023-05-12T06:37:40.513Z,55.47
2023-05-12T06:38:40.478Z,55.60
2023-05-12T06:39:40.566Z,55.65
2023-05-12T06:40:40.652Z,54.69
2023-05-12T06:41:40.717Z,54.24
2023-05-12T06:42:40.807Z,54.70
2023-05-12T06:43:40.895Z,54.10
2023-05-12T06:44:42.259Z,53.24
2023-05-12T06:45:41.032Z,52.20
2023-05-12T06:46:41.233Z,51.96
2023-05-12T06:47:41.253Z,50.92
2023-05-12T06:48:41.277Z,51.38
2023-05-12T06:49:41.386Z,50.64
2023-05-12T06:50:41.451Z,50.65
2023-05-12T06:51:41.509Z,50.51
2023-05-12T06:52:41.599Z,49.03
2023-05-12T06:53:41.665Z,47.55
2023-05-12T06:54:41.701Z,47.18
2023-05-12T06:55:41.945Z,47.12
2023-05-12T06:56:41.898Z,46.60
2023-05-12T06:57:41.977Z,46.57
2023-05-12T06:58:42.062Z,46.59
2023-05-12T06:59:42.124Z,47.58
2023-05-12T07:00:42.187Z,47.82
2023-05-12T07:01:42.303Z,46.94
2023-05-12T07:02:42.369Z,46.07
2023-05-12T07:03:42.428Z,46.75
2023-05-12T07:04:42.495Z,46.32
2023-05-12T07:05:42.615Z,45.42
2023-05-12T07:06:42.617Z,44.06
2023-05-12T07:07:42.705Z,43.72
2023-05-12T07:08:42.802Z,42.92
2023-05-12T07:09:42.905Z,42.44
2023-05-12T07:10:42.978Z,42.90
2023-05-12T07:11:43.032Z,42.76
2023-05-12T07:12:43.133Z,42.44
2023-05-12T07:13:43.196Z,42.85
2023-05-12T07:14:43.323Z,43.52
2023-05-12T07:15:43.474Z,44.68
2023-05-12T07:16:43.476Z,43.90
2023-05-12T07:17:43.607Z,42.31
2023-05-12T07:18:43.651Z,42.07
2023-05-12T07:19:43.697Z,42.18
2023-05-12T07:20:43.788Z,43.12
2023-05-12T07:21:43.844Z,43.72
2023-05-12T07:22:43.935Z,43.89
2023-05-12T07:23:44.043Z,44.54
2023-05-12T07:24:44.104Z,44.86
2023-05-12T07:25:44.347Z,44.10
2023-05-12T07:26:44.238Z,43.01
2023-05-12T07:27:44.318Z,42.61
2023-05-12T07:28:44.421Z,43.03
2023-05-12T07:29:44.477Z,43.18
2023-05-12T07:30:44.587Z,42.19
2023-05-12T07:31:44.829Z,40.81
2023-05-12T07:32:44.745Z,39.77
2023-05-12T07:33:44.787Z,40.89
2023-05-12T07:34:44.839Z,39.89
2023-05-12T07:35:44.956Z,40.02
2023-05-12T07:36:45.066Z,40.53
2023-05-12T07:37:45.092Z,40.24
2023-05-12T07:38:45.191Z,39.64
2023-05-12T07:39:45.301Z,39.64
2023-05-12T07:40:45.345Z,38.79
2023-05-12T07:41:45.445Z,40.32
2023-05-12T07:42:45.512Z,40.31
2023-05-12T07:43:45.640Z,40.64
2023-05-12T07:44:45.665Z,39.65
2023-05-12T07:45:45.729Z,38.11
2023-05-12T07:46:45.844Z,37.44
2023-05-12T07:47:45.960Z,37.86
2023-05-12T07:48:45.988Z,37.72
2023-05-12T07:49:46.081Z,38.54
2023-05-12T07:50:46.127Z,37.71
2023-05-12T07:51:46.193Z,37.01
2023-05-12T07:52:46.310Z,36.86
2023-05-12T07:53:46.364Z,35.55
2023-05-12T07:54:46.457Z,35.54
2023-05-12T07:55:46.553Z,35.08
2023-05-12T07:56:46.611Z,34.40
2023-05-12T07:57:46.731Z,34.43
2023-05-12T07:58:47.604Z,34.78
2023-05-12T07:59:46.865Z,34.38
2023-05-12T08:00:46.935Z,34.50
2023-05-12T08:01:47.032Z,33.99
2023-05-12T08:02:47.269Z,34.22
2023-05-12T08:03:47.354Z,34.26
2023-05-12T08:04:47.215Z,34.16
2023-05-12T08:05:47.289Z,33.69
2023-05-12T08:06:47.379Z,33.07
2023-05-12T08:07:47.535Z,33.48
2023-05-12T08:08:47.695Z,33.53
2023-05-12T08:09:47.651Z,32.95
2023-05-12T08:10:47.746Z,33.67
2023-05-12T08:11:50.773Z,32.82
2023-05-12T08:12:48.032Z,32.53
2023-05-12T08:13:48.054Z,33.02
2023-05-12T08:14:48.082Z,32.91
2023-05-12T08:15:48.144Z,32.59
2023-05-12T08:16:48.229Z,31.65
2023-05-12T08:17:48.333Z,31.59
2023-05-12T08:18:48.442Z,31.61
2023-05-12T08:19:48.558Z,30.91
2023-05-12T08:20:48.547Z,30.99
2023-05-12T08:21:48.598Z,30.26
2023-05-12T08:22:48.702Z,30.84
2023-05-12T08:23:48.783Z,30.29
2023-05-12T08:24:48.886Z,30.04
2023-05-12T08:25:48.988Z,29.50
2023-05-12T08:26:50.731Z,28.72
2023-05-12T08:27:49.108Z,28.97
2023-05-12T08:28:49.204Z,29.04
2023-05-12T08:29:49.306Z,29.30
2023-05-12T08:30:49.447Z,29.20
2023-05-12T08:31:49.480Z,29.97
2023-05-12T08:32:49.579Z,29.26
2023-05-12T08:33:51.854Z,29.03
2023-05-12T08:34:49.694Z,29.32
2023-05-12T08:35:49.805Z,29.04
2023-05-12T08:36:49.879Z,29.57
2023-05-12T08:37:49.994Z,29.16
2023-05-12T08:38:50.036Z,29.46
2023-05-12T08:39:50.102Z,29.98
2023-05-12T08:40:50.205Z,29.33
2023-05-12T08:41:50.287Z,29.31
2023-05-12T08:42:50.351Z,29.27
2023-05-12T08:43:50.438Z,28.82
2023-05-12T08:44:50.548Z,28.91
2023-05-12T08:45:50.593Z,29.34
2023-05-12T08:46:50.820Z,29.13
2023-05-12T08:47:50.758Z,29.37
2023-05-12T08:48:50.840Z,29.54
2023-05-12T08:49:52.476Z,29.18
2023-05-12T08:50:50.955Z,28.94
2023-05-12T08:51:57.606Z,28.58
2023-05-12T08:52:51.145Z,28.38
2023-05-12T08:53:51.209Z,28.43
2023-05-12T08:54:55.980Z,28.40
2023-05-12T08:57:08.308Z,29.19
2023-05-12T08:57:15.075Z,28.78
2023-05-12T08:57:51.526Z,28.61
2023-05-12T08:58:51.583Z,29.13
2023-05-12T08:59:51.692Z,28.56
2023-05-12T09:00:51.789Z,28.90
2023-05-12T09:01:51.862Z,28.39
2023-05-12T09:02:54.498Z,28.56
2023-05-12T09:03:52.027Z,28.32
2023-05-12T09:04:52.190Z,28.36
2023-05-12T09:05:52.194Z,28.04
2023-05-12T09:06:54.969Z,27.76
2023-05-12T09:07:52.332Z,28.10
2023-05-12T09:08:52.440Z,28.32
2023-05-12T09:09:52.490Z,28.00
2023-05-12T09:10:52.587Z,28.43
2023-05-12T09:11:52.704Z,28.26
2023-05-12T09:12:52.758Z,27.91
2023-05-12T09:13:52.877Z,27.59
2023-05-12T09:14:52.981Z,27.80
2023-05-12T09:15:53.046Z,28.05
2023-05-12T09:16:53.188Z,27.59
2023-05-12T09:17:53.396Z,27.24
2023-05-12T09:18:53.387Z,27.12
2023-05-12T09:19:53.384Z,26.90
2023-05-12T09:20:53.499Z,26.96
2023-05-12T09:21:53.562Z,27.42
2023-05-12T09:22:53.626Z,28.13
2023-05-12T09:23:53.726Z,28.09
2023-05-12T09:24:53.796Z,27.84
2023-05-12T09:25:53.873Z,28.14
2023-05-12T09:26:53.965Z,28.34
2023-05-12T09:27:54.011Z,27.96
2023-05-12T09:28:54.123Z,27.85
2023-05-12T09:29:59.174Z,28.39
2023-05-12T09:30:54.225Z,28.11
2023-05-12T09:31:54.304Z,27.61
2023-05-12T09:32:54.459Z,27.51
2023-05-12T09:33:54.429Z,27.48
2023-05-12T09:34:54.532Z,27.29
2023-05-12T09:35:54.598Z,28.20
2023-05-12T09:36:54.664Z,28.95
2023-05-12T09:37:54.736Z,29.09
2023-05-12T09:38:54.830Z,28.62
2023-05-12T09:39:54.880Z,28.34
2023-05-12T09:40:54.981Z,28.90
2023-05-12T09:41:55.077Z,29.28
2023-05-12T09:42:55.128Z,28.77
2023-05-12T09:43:55.235Z,28.80
2023-05-12T09:44:55.305Z,29.33
2023-05-12T09:45:55.388Z,28.66
2023-05-12T09:46:55.428Z,28.47
2023-05-12T09:47:55.560Z,28.96
2023-05-12T09:48:56.150Z,28.85
2023-05-12T09:49:55.644Z,28.43
2023-05-12T09:50:55.690Z,27.50
2023-05-12T09:51:55.790Z,27.66
2023-05-12T09:52:55.906Z,27.30
2023-05-12T09:53:55.958Z,27.72
2023-05-12T09:54:56.064Z,27.31
2023-05-12T09:55:56.116Z,27.60
2023-05-12T09:56:56.230Z,27.68
2023-05-12T09:57:56.312Z,27.02
2023-05-12T09:58:56.364Z,27.38
2023-05-12T09:59:56.464Z,27.06
2023-05-12T10:01:17.700Z,26.82
2023-05-12T10:01:56.629Z,27.32
2023-05-12T10:02:56.737Z,27.35
2023-05-12T10:03:56.801Z,27.49
2023-05-12T10:04:56.884Z,27.58
2023-05-12T10:05:56.921Z,27.07
2023-05-12T10:06:57.013Z,28.07
2023-05-12T10:07:57.124Z,28.28
2023-05-12T10:08:57.186Z,28.44
2023-05-12T10:09:57.264Z,28.06
2023-05-12T10:10:58.271Z,27.42
2023-05-12T10:11:57.398Z,26.95
2023-05-12T10:12:57.497Z,26.33
2023-05-12T10:13:57.583Z,26.52
2023-05-12T10:14:57.646Z,27.31
2023-05-12T10:15:57.760Z,26.90
2023-05-12T10:16:57.865Z,27.23
2023-05-12T10:17:57.990Z,28.69
2023-05-12T10:18:58.028Z,28.01
2023-05-12T10:19:58.078Z,27.25
2023-05-12T10:20:58.165Z,26.88
2023-05-12T10:21:58.259Z,26.55
2023-05-12T10:22:58.323Z,26.28
2023-05-12T10:23:58.444Z,27.23
2023-05-12T10:24:58.494Z,27.53
2023-05-12T10:25:58.611Z,27.16
2023-05-12T10:26:58.664Z,27.47
2023-05-12T10:27:58.703Z,27.19
2023-05-12T10:28:58.827Z,26.47
2023-05-12T10:29:58.912Z,26.55
2023-05-12T10:30:59.079Z,25.68
2023-05-12T10:31:59.046Z,25.90
2023-05-12T10:32:59.144Z,25.80
2023-05-12T10:33:59.199Z,25.33
2023-05-12T10:34:59.318Z,24.89
2023-05-12T10:35:59.357Z,25.02
2023-05-12T10:36:59.452Z,24.74
2023-05-12T10:37:59.547Z,24.50
2023-05-12T10:38:59.641Z,25.28
2023-05-12T10:39:59.745Z,24.28
2023-05-12T10:40:59.821Z,24.54
2023-05-12T10:41:59.978Z,24.03
2023-05-12T10:42:59.975Z,23.83
2023-05-12T10:44:00.135Z,25.23
2023-05-12T10:45:00.151Z,26.10
2023-05-12T10:46:00.226Z,26.48
2023-05-12T10:47:00.292Z,26.04
2023-05-12T10:48:00.371Z,25.47
2023-05-12T10:49:00.449Z,24.57
2023-05-12T10:50:00.526Z,24.37
2023-05-12T10:51:00.584Z,24.18
2023-05-12T10:52:00.640Z,24.20
2023-05-12T10:53:00.747Z,24.19
2023-05-12T10:54:00.857Z,24.70
2023-05-12T10:55:00.968Z,24.44
2023-05-12T10:56:01.233Z,25.62
2023-05-12T10:57:01.234Z,25.24
2023-05-12T10:58:01.372Z,25.37
2023-05-12T10:59:01.322Z,26.11
2023-05-12T11:00:02.473Z,25.58
2023-05-12T11:01:02.070Z,25.21
2023-05-12T11:02:03.054Z,24.94
2023-05-12T11:03:08.152Z,24.32
2023-05-12T11:04:01.719Z,24.06
2023-05-12T11:05:01.890Z,24.16
2023-05-12T11:06:02.862Z,24.27
2023-05-12T11:07:02.938Z,24.45
2023-05-12T11:08:02.673Z,24.48
2023-05-12T11:09:03.048Z,23.95
2023-05-12T11:10:02.410Z,23.89
2023-05-12T11:11:03.229Z,24.14
2023-05-12T11:12:02.864Z,24.23
2023-05-12T11:13:02.370Z,24.04
2023-05-12T11:14:02.483Z,23.44
2023-05-12T11:15:02.569Z,24.18
2023-05-12T11:16:02.650Z,24.25
2023-05-12T11:17:02.746Z,24.91
2023-05-12T11:18:02.911Z,24.66
2023-05-12T11:19:03.063Z,24.88
2023-05-12T11:20:02.993Z,24.22
2023-05-12T11:21:03.057Z,23.85
2023-05-12T11:22:03.157Z,23.78
2023-05-12T11:23:03.517Z,23.38
2023-05-12T11:24:03.323Z,23.41
2023-05-12T11:25:03.412Z,23.57
2023-05-12T11:26:03.466Z,23.02
2023-05-12T11:27:03.529Z,23.14
2023-05-12T11:28:03.591Z,23.76
2023-05-12T11:29:03.668Z,25.03
2023-05-12T11:30:03.726Z,24.82
2023-05-12T11:31:03.847Z,24.54
2023-05-12T11:32:03.937Z,23.63
2023-05-12T11:33:04.273Z,22.13
2023-05-12T11:34:11.959Z,22.32
2023-05-12T11:35:04.191Z,22.33
2023-05-12T11:36:04.254Z,21.59
2023-05-12T11:37:04.318Z,21.99
2023-05-12T11:38:04.570Z,21.65
2023-05-12T11:39:04.472Z,21.28
2023-05-12T11:40:04.575Z,21.70
2023-05-12T11:41:04.635Z,21.69
2023-05-12T11:42:12.272Z,21.58
2023-05-12T11:43:04.791Z,21.58
2023-05-12T11:44:04.940Z,22.71
2023-05-12T11:45:04.987Z,24.38
2023-05-12T11:46:05.057Z,25.36
2023-05-12T11:47:05.125Z,25.53
2023-05-12T11:48:05.345Z,24.22
2023-05-12T11:49:05.327Z,23.63
2023-05-12T11:50:05.391Z,22.41
2023-05-12T11:51:05.596Z,22.45
2023-05-12T11:52:05.569Z,21.24
2023-05-12T11:53:05.681Z,20.94
2023-05-12T11:54:06.237Z,20.48
2023-05-12T11:55:05.977Z,20.70
2023-05-12T11:56:05.930Z,21.46
2023-05-12T11:57:05.974Z,21.24
2023-05-12T11:58:06.045Z,21.60
2023-05-12T11:59:06.256Z,21.75
2023-05-12T12:00:06.201Z,22.38
2023-05-12T12:01:06.267Z,22.24
2023-05-12T12:02:06.354Z,22.44
2023-05-12T12:03:06.582Z,22.69
2023-05-12T12:04:06.604Z,23.10
2023-05-12T12:05:08.576Z,23.34
2023-05-12T12:06:06.656Z,23.91
2023-05-12T12:07:06.688Z,22.80
2023-05-12T12:08:06.816Z,22.64
2023-05-12T12:09:06.866Z,22.54
2023-05-12T12:10:06.945Z,23.46
2023-05-12T12:11:07.086Z,24.11
2023-05-12T12:12:07.077Z,24.47
2023-05-12T12:13:07.163Z,24.66
2023-05-12T12:14:07.322Z,24.50
2023-05-12T12:15:07.359Z,23.40
2023-05-12T12:16:07.460Z,23.55
2023-05-12T12:17:07.505Z,24.28
2023-05-12T12:18:07.677Z,24.62
2023-05-12T12:19:07.759Z,24.56
2023-05-12T12:20:07.874Z,23.76
2023-05-12T12:21:07.828Z,23.52
2023-05-12T12:22:07.887Z,23.15
2023-05-12T12:23:07.942Z,23.03
2023-05-12T12:24:08.040Z,22.11
2023-05-12T12:25:08.136Z,21.42
2023-05-12T12:26:08.241Z,22.01
2023-05-12T12:27:08.310Z,23.32
2023-05-12T12:28:08.395Z,22.91
2023-05-12T12:29:08.482Z,22.81
2023-05-12T12:30:08.543Z,23.47
2023-05-12T12:31:08.734Z,24.18
2023-05-12T12:32:08.724Z,24.08
2023-05-12T12:33:08.842Z,24.40
2023-05-12T12:34:08.928Z,25.19
2023-05-12T12:35:08.942Z,25.47
2023-05-12T12:36:09.050Z,24.95
2023-05-12T12:37:09.065Z,23.64
2023-05-12T12:38:09.174Z,23.12
2023-05-12T12:39:09.233Z,23.90
2023-05-12T12:40:09.335Z,23.82
2023-05-12T12:41:09.401Z,24.23
2023-05-12T12:42:09.539Z,25.07
2023-05-12T12:43:09.573Z,24.40
2023-05-12T12:44:09.666Z,24.70
2023-05-12T12:45:09.748Z,23.50
2023-05-12T12:46:09.811Z,23.39
2023-05-12T12:47:10.065Z,23.71
2023-05-12T12:48:09.994Z,24.07
2023-05-12T12:49:10.043Z,24.41
2023-05-12T12:50:10.243Z,24.30
2023-05-12T12:51:10.206Z,25.05
2023-05-12T12:52:10.333Z,24.99
2023-05-12T12:53:10.422Z,25.56
2023-05-12T12:54:10.527Z,25.89